Time;durP1;ratioP1;P1;durP2;ratioP2;P2;SDS_P1;SDS_P2;PMS_P1;PMS_P2;Temp;Humidity;BMP_temperature;BMP_pressure;BME280_temperature;BME280_humidity;BME280_pressure;Samples;Min_cycle;Max_cycle;Signal;HPM_P1;HPM_P2
2021/06/25 00:01:13;;;;;;;1.00;0.90;;;;;;;;;;5045724;28;20131;-64
2021/06/25 00:03:42;;;;;;;1.10;1.00;;;;;;;;;;5051030;28;20103;-64
2021/06/25 00:06:10;;;;;;;2.45;1.30;;;;;;;;;;5040119;28;20055;-64
2021/06/25 00:08:38;;;;;;;1.88;1.27;;;;;;;;;;5045110;28;20048;-64
2021/06/25 00:11:06;;;;;;;1.67;1.20;;;;;;;;;;5045144;28;20124;-64
2021/06/25 00:13:35;;;;;;;3.65;1.50;;;;;;;;;;5041073;28;20586;-64
2021/06/25 00:16:03;;;;;;;1.75;1.17;;;;;;;;;;5045559;28;20486;-64
2021/06/25 00:18:33;;;;;;;1.50;1.40;;;;;;;;;;5046007;28;20077;-64
2021/06/25 00:21:01;;;;;;;5.47;1.55;;;;;;;;;;5041470;28;20404;-64
2021/06/25 00:23:30;;;;;;;5.13;1.38;;;;;;;;;;5049189;28;20484;-63
2021/06/25 00:25:58;;;;;;;1.73;1.63;;;;;;;;;;5042573;28;20049;-64
2021/06/25 00:28:26;;;;;;;2.40;1.70;;;;;;;;;;5031223;28;20137;-64
2021/06/25 00:30:54;;;;;;;4.05;1.50;;;;;;;;;;5041214;28;20052;-64
2021/06/25 00:33:23;;;;;;;4.47;1.85;;;;;;;;;;5045678;28;20041;-64
2021/06/25 00:35:52;;;;;;;2.67;1.63;;;;;;;;;;5048999;28;20049;-65
2021/06/25 00:38:21;;;;;;;1.52;1.33;;;;;;;;;;5041687;28;20128;-64
2021/06/25 00:40:49;;;;;;;4.07;2.03;;;;;;;;;;5030340;28;20045;-64
2021/06/25 00:43:17;;;;;;;3.30;1.55;;;;;;;;;;5030145;28;20141;-64
2021/06/25 00:45:46;;;;;;;4.65;1.70;;;;;;;;;;5039028;28;20053;-64
2021/06/25 00:48:14;;;;;;;2.40;1.52;;;;;;;;;;5036113;28;20509;-64
2021/06/25 00:50:42;;;;;;;2.78;1.33;;;;;;;;;;5040469;28;20070;-64
2021/06/25 00:53:12;;;;;;;5.57;1.58;;;;;;;;;;5050230;28;20493;-64
2021/06/25 00:55:43;;;;;;;2.28;1.35;;;;;;;;;;5038498;28;20055;-64
2021/06/25 00:58:12;;;;;;;2.90;1.27;;;;;;;;;;5045538;28;20054;-64
2021/06/25 01:00:41;;;;;;;2.60;1.40;;;;;;;;;;5050097;28;20428;-63
2021/06/25 01:05:55;;;;;;;3.63;1.33;;;;;;;;;;5143796;22;20163;-66
2021/06/25 01:08:25;;;;;;;1.75;1.30;;;;;;;;;;5048499;28;20440;-66
2021/06/25 01:10:55;;;;;;;1.10;1.00;;;;;;;;;;5053849;28;20055;-66
2021/06/25 01:13:23;;;;;;;2.05;1.40;;;;;;;;;;5053621;28;20139;-67
2021/06/25 01:15:51;;;;;;;1.73;1.10;;;;;;;;;;5050409;28;20124;-66
2021/06/25 01:18:20;;;;;;;2.80;1.27;;;;;;;;;;5053388;28;20045;-66
2021/06/25 01:20:48;;;;;;;3.13;1.13;;;;;;;;;;5052692;28;20045;-66
2021/06/25 01:23:18;;;;;;;1.45;1.17;;;;;;;;;;5053963;28;20136;-67
2021/06/25 01:25:46;;;;;;;4.10;1.35;;;;;;;;;;5043902;28;20044;-67
2021/06/25 01:28:14;;;;;;;2.28;1.20;;;;;;;;;;5053804;28;20128;-66
2021/06/25 01:30:44;;;;;;;2.78;1.00;;;;;;;;;;5053291;28;20055;-67
2021/06/25 01:33:13;;;;;;;2.58;1.30;;;;;;;;;;5052085;28;20095;-66
2021/06/25 01:35:41;;;;;;;1.75;1.20;;;;;;;;;;5052104;28;20135;-68
2021/06/25 01:38:10;;;;;;;2.85;1.27;;;;;;;;;;5052005;28;20532;-67
2021/06/25 01:40:40;;;;;;;2.15;1.30;;;;;;;;;;5036879;28;20124;-66
2021/06/25 01:43:11;;;;;;;2.17;1.00;;;;;;;;;;5052716;28;20049;-67
2021/06/25 01:45:40;;;;;;;1.75;1.00;;;;;;;;;;5052818;28;20482;-67
2021/06/25 01:48:08;;;;;;;1.98;1.10;;;;;;;;;;5051927;28;20141;-67
2021/06/25 01:50:39;;;;;;;2.85;1.00;;;;;;;;;;5053107;28;20061;-66
2021/06/25 01:53:08;;;;;;;2.33;1.00;;;;;;;;;;5052508;28;20071;-67
2021/06/25 01:55:40;;;;;;;4.72;1.17;;;;;;;;;;5052351;28;20124;-67
2021/06/25 01:58:11;;;;;;;1.65;1.08;;;;;;;;;;5052473;28;20066;-66
2021/06/25 02:00:40;;;;;;;1.80;0.82;;;;;;;;;;5052225;28;20037;-66
2021/06/25 02:03:08;;;;;;;2.30;0.90;;;;;;;;;;5052404;28;20568;-67
2021/06/25 02:05:37;;;;;;;5.43;0.90;;;;;;;;;;5065729;28;20060;-65
2021/06/25 02:08:05;;;;;;;1.90;0.93;;;;;;;;;;5055850;28;20053;-64
2021/06/25 02:10:33;;;;;;;1.52;0.75;;;;;;;;;;5051921;28;20056;-65
2021/06/25 02:13:02;;;;;;;1.35;1.00;;;;;;;;;;5051819;28;20049;-66
2021/06/25 02:15:31;;;;;;;2.70;0.95;;;;;;;;;;5051882;28;20091;-68
2021/06/25 02:18:00;;;;;;;4.72;0.85;;;;;;;;;;5051338;28;20473;-66
2021/06/25 02:20:28;;;;;;;0.75;0.70;;;;;;;;;;5051707;28;20053;-66
2021/06/25 02:22:57;;;;;;;1.08;0.85;;;;;;;;;;5051876;28;20552;-66
2021/06/25 02:25:25;;;;;;;2.25;0.80;;;;;;;;;;5051127;28;20552;-67
2021/06/25 02:27:54;;;;;;;5.28;0.90;;;;;;;;;;5051313;28;20063;-68
2021/06/25 02:30:22;;;;;;;2.08;0.90;;;;;;;;;;5052280;28;20136;-66
2021/06/25 02:32:52;;;;;;;0.82;0.80;;;;;;;;;;5053156;28;20137;-67
2021/06/25 02:35:20;;;;;;;2.75;0.85;;;;;;;;;;5052084;28;20045;-66
2021/06/25 02:37:48;;;;;;;2.08;0.85;;;;;;;;;;5051066;28;20056;-67
2021/06/25 02:40:17;;;;;;;2.42;0.80;;;;;;;;;;5051705;28;20120;-66
2021/06/25 02:42:45;;;;;;;1.88;0.90;;;;;;;;;;5052571;28;20049;-67
2021/06/25 02:45:14;;;;;;;1.08;0.90;;;;;;;;;;5051771;28;20080;-66
2021/06/25 02:47:42;;;;;;;0.70;0.60;;;;;;;;;;5050595;28;20048;-66
2021/06/25 02:50:13;;;;;;;1.92;0.70;;;;;;;;;;5048930;28;20132;-66
2021/06/25 02:52:41;;;;;;;3.22;0.98;;;;;;;;;;5051847;28;20045;-66
2021/06/25 02:55:10;;;;;;;4.15;0.93;;;;;;;;;;5051531;28;20135;-66
2021/06/25 02:57:38;;;;;;;2.25;0.90;;;;;;;;;;5051350;28;20131;-66
2021/06/25 03:00:09;;;;;;;3.97;0.90;;;;;;;;;;5055787;28;20045;-66
2021/06/25 03:02:37;;;;;;;1.25;0.70;;;;;;;;;;5039945;28;20041;-66
2021/06/25 03:05:07;;;;;;;1.90;0.90;;;;;;;;;;5050739;28;20140;-67
2021/06/25 03:07:36;;;;;;;1.35;0.75;;;;;;;;;;5050790;28;20080;-67
2021/06/25 03:10:06;;;;;;;1.30;0.60;;;;;;;;;;5050890;28;20139;-66
2021/06/25 03:12:35;;;;;;;2.45;0.88;;;;;;;;;;5051421;28;20126;-67
2021/06/25 03:15:03;;;;;;;1.63;1.00;;;;;;;;;;5051372;28;20045;-66
2021/06/25 03:17:32;;;;;;;5.53;1.05;;;;;;;;;;5049793;28;20155;-66
2021/06/25 03:20:00;;;;;;;0.88;0.80;;;;;;;;;;5050016;28;20055;-66
2021/06/25 03:22:28;;;;;;;1.38;0.80;;;;;;;;;;5051284;28;20115;-66
2021/06/25 03:24:58;;;;;;;2.00;0.93;;;;;;;;;;5050512;28;20048;-67
2021/06/25 03:27:26;;;;;;;3.05;0.90;;;;;;;;;;5050499;28;20045;-67
2021/06/25 03:29:54;;;;;;;1.85;1.00;;;;;;;;;;5050462;28;20571;-67
2021/06/25 03:32:22;;;;;;;2.88;0.80;;;;;;;;;;5051473;28;20092;-66
2021/06/25 03:34:51;;;;;;;3.78;1.45;;;;;;;;;;5051474;28;20500;-66
2021/06/25 03:37:21;;;;;;;2.15;1.33;;;;;;;;;;5050834;28;20079;-68
2021/06/25 03:39:50;;;;;;;6.38;1.17;;;;;;;;;;5051622;28;20041;-67
2021/06/25 03:42:19;;;;;;;2.42;1.30;;;;;;;;;;5053392;28;20128;-66
2021/06/25 03:44:48;;;;;;;4.25;1.00;;;;;;;;;;5053253;28;20127;-67
2021/06/25 03:47:16;;;;;;;2.17;1.10;;;;;;;;;;5053786;28;20575;-67
2021/06/25 03:49:44;;;;;;;3.17;0.95;;;;;;;;;;5050320;28;20087;-66
2021/06/25 03:52:13;;;;;;;3.28;0.82;;;;;;;;;;5050972;28;20128;-66
2021/06/25 03:54:42;;;;;;;1.13;0.95;;;;;;;;;;5050194;28;20045;-66
2021/06/25 03:57:10;;;;;;;2.20;0.80;;;;;;;;;;5050313;28;20087;-66
2021/06/25 03:59:40;;;;;;;1.65;1.10;;;;;;;;;;5049529;28;20492;-66
2021/06/25 04:02:10;;;;;;;5.18;1.00;;;;;;;;;;5048835;28;20055;-66
2021/06/25 04:04:38;;;;;;;3.47;1.05;;;;;;;;;;5050215;28;20132;-66
2021/06/25 04:07:10;;;;;;;1.52;1.17;;;;;;;;;;5049772;28;20421;-67
2021/06/25 04:09:39;;;;;;;1.20;0.80;;;;;;;;;;5048696;28;20124;-66
2021/06/25 04:12:08;;;;;;;2.10;1.05;;;;;;;;;;5050130;28;20140;-66
2021/06/25 04:14:36;;;;;;;1.85;1.10;;;;;;;;;;5050104;28;20084;-66
2021/06/25 04:17:06;;;;;;;2.30;1.00;;;;;;;;;;5049220;28;20144;-66
2021/06/25 04:19:34;;;;;;;7.72;1.85;;;;;;;;;;5049690;28;20080;-66
2021/06/25 04:22:03;;;;;;;1.95;1.00;;;;;;;;;;5049462;28;20140;-66
2021/06/25 04:24:31;;;;;;;2.30;1.20;;;;;;;;;;5049426;28;20123;-67
2021/06/25 04:26:59;;;;;;;2.00;1.10;;;;;;;;;;5049154;28;20159;-66
2021/06/25 04:29:27;;;;;;;1.70;1.10;;;;;;;;;;5049299;28;20051;-66
2021/06/25 04:31:56;;;;;;;1.90;1.13;;;;;;;;;;5049740;28;20059;-66
2021/06/25 04:34:26;;;;;;;2.85;1.10;;;;;;;;;;5049018;28;20052;-66
2021/06/25 04:36:55;;;;;;;2.63;1.02;;;;;;;;;;5049608;28;20124;-66
2021/06/25 04:39:23;;;;;;;2.03;1.30;;;;;;;;;;5057983;28;20135;-67
2021/06/25 04:41:51;;;;;;;2.88;1.10;;;;;;;;;;5051898;28;20048;-66
2021/06/25 04:44:20;;;;;;;1.92;1.40;;;;;;;;;;5049450;28;20477;-66
2021/06/25 04:46:48;;;;;;;1.80;1.10;;;;;;;;;;5049308;28;20132;-66
2021/06/25 04:49:21;;;;;;;1.88;1.35;;;;;;;;;;5050033;28;20596;-66
2021/06/25 04:51:50;;;;;;;2.38;1.40;;;;;;;;;;5030567;28;20045;-66
2021/06/25 04:54:19;;;;;;;2.75;1.30;;;;;;;;;;5041630;28;20052;-66
2021/06/25 04:56:48;;;;;;;2.42;1.45;;;;;;;;;;5049415;28;20128;-66
2021/06/25 04:59:16;;;;;;;2.30;1.35;;;;;;;;;;5049677;28;20051;-66
2021/06/25 05:01:44;;;;;;;2.92;1.52;;;;;;;;;;5036116;28;20540;-66
2021/06/25 05:04:13;;;;;;;2.67;1.50;;;;;;;;;;5049414;28;20058;-66
2021/06/25 05:06:41;;;;;;;3.03;1.52;;;;;;;;;;5046252;28;20479;-67
2021/06/25 05:09:11;;;;;;;1.90;1.25;;;;;;;;;;5048616;28;20056;-67
2021/06/25 05:11:39;;;;;;;3.08;1.60;;;;;;;;;;5049521;28;20073;-67
2021/06/25 05:14:07;;;;;;;2.22;1.20;;;;;;;;;;5050623;28;20505;-67
2021/06/25 05:16:36;;;;;;;2.60;1.38;;;;;;;;;;5049058;28;20136;-67
2021/06/25 05:19:04;;;;;;;3.38;1.70;;;;;;;;;;5056846;28;20622;-67
2021/06/25 05:21:33;;;;;;;2.17;1.33;;;;;;;;;;5048660;28;20049;-67
2021/06/25 05:24:01;;;;;;;2.53;1.70;;;;;;;;;;5047567;28;20041;-67
2021/06/25 05:26:31;;;;;;;2.58;1.52;;;;;;;;;;5048239;28;20447;-66
2021/06/25 05:28:59;;;;;;;2.13;1.80;;;;;;;;;;5044795;28;20162;-66
2021/06/25 05:31:27;;;;;;;3.30;1.35;;;;;;;;;;5046270;28;20423;-66
2021/06/25 05:33:56;;;;;;;2.67;1.55;;;;;;;;;;5044768;28;20057;-67
2021/06/25 05:36:25;;;;;;;3.67;1.63;;;;;;;;;;5045453;28;20045;-67
2021/06/25 05:38:54;;;;;;;5.13;1.58;;;;;;;;;;5044978;28;20049;-67
2021/06/25 05:41:22;;;;;;;5.05;1.60;;;;;;;;;;5045762;28;20156;-67
2021/06/25 05:43:52;;;;;;;2.05;1.40;;;;;;;;;;5045066;28;20154;-66
2021/06/25 05:46:20;;;;;;;2.55;1.85;;;;;;;;;;5046163;28;20120;-67
2021/06/25 05:48:49;;;;;;;3.22;1.48;;;;;;;;;;5046396;28;20052;-66
2021/06/25 05:51:18;;;;;;;2.22;1.70;;;;;;;;;;5044840;28;20055;-66
2021/06/25 05:53:46;;;;;;;2.42;1.63;;;;;;;;;;5045576;28;20060;-67
2021/06/25 05:56:14;;;;;;;2.55;1.70;;;;;;;;;;5044589;28;20163;-67
2021/06/25 05:58:43;;;;;;;2.67;1.77;;;;;;;;;;5042541;28;20049;-66
2021/06/25 06:01:12;;;;;;;2.88;1.70;;;;;;;;;;5042824;28;20480;-67
2021/06/25 06:03:41;;;;;;;3.65;1.83;;;;;;;;;;5051839;28;20059;-67
2021/06/25 06:06:09;;;;;;;5.45;1.83;;;;;;;;;;5048151;28;20049;-67
2021/06/25 06:08:38;;;;;;;2.97;1.83;;;;;;;;;;5049586;28;20080;-67
2021/06/25 06:11:06;;;;;;;3.90;1.70;;;;;;;;;;5048689;28;20524;-67
2021/06/25 06:13:35;;;;;;;3.15;2.30;;;;;;;;;;5044004;28;20127;-67
2021/06/25 06:16:03;;;;;;;2.50;1.63;;;;;;;;;;5044737;28;20049;-68
2021/06/25 06:18:37;;;;;;;2.17;1.88;;;;;;;;;;5044266;28;20473;-67
2021/06/25 06:21:06;;;;;;;6.20;1.80;;;;;;;;;;5047467;28;20128;-67
2021/06/25 06:32:17;;;;;;;4.65;2.53;;;;;;;;;;4982226;28;20050;-67
2021/06/25 06:34:48;;;;;;;5.00;2.20;;;;;;;;;;4985719;28;20054;-68
2021/06/25 06:37:20;;;;;;;5.47;2.45;;;;;;;;;;5017723;28;20493;-68
2021/06/25 06:39:49;;;;;;;3.75;2.30;;;;;;;;;;5047240;28;20056;-69
2021/06/25 06:42:17;;;;;;;4.53;2.00;;;;;;;;;;5048596;28;20153;-69
2021/06/25 06:44:46;;;;;;;5.35;2.17;;;;;;;;;;5047905;28;20053;-67
2021/06/25 06:47:14;;;;;;;3.08;2.25;;;;;;;;;;5047792;28;20081;-70
2021/06/25 06:49:42;;;;;;;2.83;2.40;;;;;;;;;;5047220;28;20080;-65
2021/06/25 06:52:12;;;;;;;6.45;2.63;;;;;;;;;;5046641;28;20790;-65
2021/06/25 06:54:40;;;;;;;4.20;2.30;;;;;;;;;;5047887;28;20076;-66
2021/06/25 06:57:09;;;;;;;5.90;2.70;;;;;;;;;;5047056;28;20088;-65
2021/06/25 06:59:38;;;;;;;5.00;2.35;;;;;;;;;;5047302;28;20075;-67
2021/06/25 07:02:07;;;;;;;4.22;2.70;;;;;;;;;;5047204;28;20045;-66
2021/06/25 07:04:41;;;;;;;4.97;2.53;;;;;;;;;;5046445;28;20101;-67
2021/06/25 07:07:09;;;;;;;4.82;2.53;;;;;;;;;;5046757;28;20056;-65
2021/06/25 07:09:39;;;;;;;6.15;3.40;;;;;;;;;;5046527;28;20548;-66
2021/06/25 07:12:08;;;;;;;4.28;1.98;;;;;;;;;;5047670;28;20096;-66
2021/06/25 07:14:37;;;;;;;3.63;2.78;;;;;;;;;;5049352;28;20110;-66
2021/06/25 07:17:05;;;;;;;4.82;2.97;;;;;;;;;;5045901;28;20083;-66
2021/06/25 07:19:34;;;;;;;4.00;2.65;;;;;;;;;;5047774;28;20053;-68
2021/06/25 07:22:03;;;;;;;3.67;2.70;;;;;;;;;;5045032;28;20140;-68
2021/06/25 07:24:31;;;;;;;5.22;3.65;;;;;;;;;;5047632;28;20103;-67
2021/06/25 07:27:01;;;;;;;3.28;2.70;;;;;;;;;;5045431;28;20057;-68
2021/06/25 07:29:30;;;;;;;7.43;2.63;;;;;;;;;;5045748;28;20144;-68
2021/06/25 07:31:59;;;;;;;6.55;2.67;;;;;;;;;;5045701;28;20139;-67
2021/06/25 07:34:27;;;;;;;6.15;2.72;;;;;;;;;;5047505;28;20068;-68
2021/06/25 07:36:56;;;;;;;4.68;2.33;;;;;;;;;;5045065;28;20099;-68
2021/06/25 07:39:24;;;;;;;3.88;2.60;;;;;;;;;;5045932;28;20049;-68
2021/06/25 07:41:53;;;;;;;3.97;2.10;;;;;;;;;;5046754;28;20488;-67
2021/06/25 07:44:22;;;;;;;3.78;2.38;;;;;;;;;;5048907;28;20103;-67
2021/06/25 07:46:51;;;;;;;2.80;2.30;;;;;;;;;;5049717;28;20124;-68
2021/06/25 07:49:19;;;;;;;3.08;2.40;;;;;;;;;;5045094;28;20076;-67
2021/06/25 07:51:48;;;;;;;3.53;2.60;;;;;;;;;;5046808;28;20041;-67
2021/06/25 07:54:16;;;;;;;5.40;2.97;;;;;;;;;;5049529;28;20107;-67
2021/06/25 07:56:45;;;;;;;4.18;2.53;;;;;;;;;;5048214;28;20346;-69
2021/06/25 07:59:13;;;;;;;4.90;2.97;;;;;;;;;;5048290;28;20180;-68
2021/06/25 08:01:43;;;;;;;3.40;2.47;;;;;;;;;;5048700;28;20049;-68
2021/06/25 08:04:12;;;;;;;4.28;2.83;;;;;;;;;;5048344;28;20048;-69
2021/06/25 08:06:42;;;;;;;5.25;2.60;;;;;;;;;;5049073;28;20136;-67
2021/06/25 08:09:11;;;;;;;5.18;2.95;;;;;;;;;;5049165;28;20041;-68
2021/06/25 08:11:39;;;;;;;3.33;2.50;;;;;;;;;;5050547;28;20068;-68
2021/06/25 08:14:08;;;;;;;4.57;2.67;;;;;;;;;;5050217;28;20049;-67
2021/06/25 08:16:37;;;;;;;4.38;2.13;;;;;;;;;;5050661;28;20068;-67
2021/06/25 08:19:07;;;;;;;6.90;2.17;;;;;;;;;;5051153;28;21318;-67
2021/06/25 08:21:36;;;;;;;2.60;1.85;;;;;;;;;;5051958;28;20053;-67
2021/06/25 08:24:05;;;;;;;2.25;1.90;;;;;;;;;;5050267;28;20099;-67
2021/06/25 08:26:33;;;;;;;2.45;2.20;;;;;;;;;;5047319;28;20053;-66
2021/06/25 08:29:02;;;;;;;3.08;1.90;;;;;;;;;;5051285;28;20474;-68
2021/06/25 08:31:31;;;;;;;3.60;2.20;;;;;;;;;;5048027;28;20059;-66
2021/06/25 08:34:00;;;;;;;2.80;2.00;;;;;;;;;;5047735;28;20453;-67
2021/06/25 08:36:31;;;;;;;5.28;2.30;;;;;;;;;;5047307;28;20075;-68
2021/06/25 08:39:00;;;;;;;5.13;2.35;;;;;;;;;;5048753;28;20416;-68
2021/06/25 08:41:29;;;;;;;4.82;2.38;;;;;;;;;;5046958;28;20052;-67
2021/06/25 08:43:58;;;;;;;3.17;2.30;;;;;;;;;;5044387;28;20278;-67
2021/06/25 08:46:30;;;;;;;2.90;2.40;;;;;;;;;;5046254;28;20057;-67
2021/06/25 08:48:59;;;;;;;2.63;2.28;;;;;;;;;;5047193;28;20053;-67
2021/06/25 08:51:27;;;;;;;3.30;2.25;;;;;;;;;;5045923;28;20049;-68
2021/06/25 08:53:58;;;;;;;6.82;2.58;;;;;;;;;;5048724;28;20416;-68
2021/06/25 08:56:31;;;;;;;7.90;2.70;;;;;;;;;;5047092;28;20048;-68
2021/06/25 08:59:00;;;;;;;6.53;2.42;;;;;;;;;;5037809;28;20056;-67
2021/06/25 09:01:32;;;;;;;4.75;2.30;;;;;;;;;;5048259;28;20045;-67
2021/06/25 09:04:00;;;;;;;4.47;2.05;;;;;;;;;;5048721;28;20056;-67
2021/06/25 09:06:29;;;;;;;2.08;1.80;;;;;;;;;;5045974;28;20041;-67
2021/06/25 09:09:12;;;;;;;2.88;1.90;;;;;;;;;;5046389;28;20078;-67
2021/06/25 09:11:43;;;;;;;2.80;1.70;;;;;;;;;;5050878;28;20044;-67
2021/06/25 09:14:12;;;;;;;2.05;1.60;;;;;;;;;;5048113;28;20562;-67
2021/06/25 09:16:42;;;;;;;2.53;1.35;;;;;;;;;;5046811;28;20049;-67
2021/06/25 09:19:15;;;;;;;2.53;1.38;;;;;;;;;;5047229;28;20091;-69
2021/06/25 09:21:45;;;;;;;3.65;1.85;;;;;;;;;;5047239;28;20068;-67
2021/06/25 09:24:18;;;;;;;4.00;1.42;;;;;;;;;;5048401;28;20057;-67
2021/06/25 09:26:47;;;;;;;2.65;1.30;;;;;;;;;;5047984;28;20471;-68
2021/06/25 09:29:17;;;;;;;2.47;1.25;;;;;;;;;;5047032;28;20102;-67
2021/06/25 09:31:46;;;;;;;1.33;1.23;;;;;;;;;;5050388;28;20033;-68
2021/06/25 09:34:15;;;;;;;6.93;2.10;;;;;;;;;;5051920;28;20492;-67
2021/06/25 09:36:43;;;;;;;1.40;1.10;;;;;;;;;;5051571;28;20611;-67
2021/06/25 09:39:13;;;;;;;1.83;1.10;;;;;;;;;;5050163;28;20056;-67
2021/06/25 09:41:43;;;;;;;3.05;1.00;;;;;;;;;;5051451;28;20053;-67
2021/06/25 09:44:13;;;;;;;1.00;0.90;;;;;;;;;;5050935;28;20056;-68
2021/06/25 09:46:42;;;;;;;1.60;1.13;;;;;;;;;;5051444;28;20106;-67
2021/06/25 09:49:11;;;;;;;1.95;1.50;;;;;;;;;;5051850;28;20103;-70
2021/06/25 09:51:40;;;;;;;0.80;0.80;;;;;;;;;;5051949;28;20077;-66
2021/06/25 09:54:14;;;;;;;1.48;1.20;;;;;;;;;;5048692;28;20049;-66
2021/06/25 09:56:47;;;;;;;2.53;1.17;;;;;;;;;;5044281;28;20045;-66
2021/06/25 09:59:27;;;;;;;3.58;1.23;;;;;;;;;;5050169;28;20095;-67
2021/06/25 10:01:55;;;;;;;2.50;1.20;;;;;;;;;;5050555;28;20049;-67
2021/06/25 10:04:37;;;;;;;2.13;1.20;;;;;;;;;;5050243;28;20089;-68
2021/06/25 10:07:13;;;;;;;2.30;1.33;;;;;;;;;;5051325;28;20083;-67
2021/06/25 10:09:42;;;;;;;1.75;1.40;;;;;;;;;;5050739;28;20132;-67
2021/06/25 10:12:16;;;;;;;2.10;1.25;;;;;;;;;;5051430;28;20049;-67
2021/06/25 10:14:45;;;;;;;1.33;1.00;;;;;;;;;;5051077;28;20085;-68
2021/06/25 10:17:14;;;;;;;2.00;1.23;;;;;;;;;;5050712;28;20077;-67
2021/06/25 10:19:43;;;;;;;2.33;1.00;;;;;;;;;;5048126;28;20047;-67
2021/06/25 10:22:13;;;;;;;2.95;1.02;;;;;;;;;;5051136;28;20408;-68
2021/06/25 10:24:43;;;;;;;1.40;1.30;;;;;;;;;;5050619;28;20126;-68
2021/06/25 10:27:12;;;;;;;2.47;1.23;;;;;;;;;;5050561;28;20551;-67
2021/06/25 10:29:42;;;;;;;2.45;1.42;;;;;;;;;;5049730;28;20091;-68
2021/06/25 10:32:11;;;;;;;1.73;1.50;;;;;;;;;;5051202;28;20515;-67
2021/06/25 10:34:40;;;;;;;2.38;1.40;;;;;;;;;;5049512;28;20110;-67
2021/06/25 10:37:09;;;;;;;1.90;1.52;;;;;;;;;;5048960;28;20048;-67
2021/06/25 10:39:41;;;;;;;3.25;1.60;;;;;;;;;;5050133;28;20056;-66
2021/06/25 10:42:11;;;;;;;7.07;1.75;;;;;;;;;;5050141;28;20115;-66
2021/06/25 10:44:42;;;;;;;2.28;1.30;;;;;;;;;;5050805;28;20092;-67
2021/06/25 10:47:16;;;;;;;2.03;1.35;;;;;;;;;;5049133;28;20060;-67
2021/06/25 10:50:04;;;;;;;1.67;1.35;;;;;;;;;;5048835;28;20080;-66
2021/06/25 10:52:33;;;;;;;1.40;1.10;;;;;;;;;;5056413;28;20072;-67
2021/06/25 10:55:02;;;;;;;2.85;1.27;;;;;;;;;;5045721;28;20053;-66
2021/06/25 10:57:31;;;;;;;1.15;0.88;;;;;;;;;;5048967;28;20072;-67
2021/06/25 10:59:59;;;;;;;2.53;1.20;;;;;;;;;;5049057;28;20123;-67
2021/06/25 11:02:43;;;;;;;1.63;1.17;;;;;;;;;;5050026;28;20051;-67
2021/06/25 11:05:26;;;;;;;1.20;1.10;;;;;;;;;;5049506;28;20069;-67
2021/06/25 11:07:55;;;;;;;1.40;1.15;;;;;;;;;;5048686;28;20153;-67
2021/06/25 11:10:24;;;;;;;1.95;1.02;;;;;;;;;;5053867;28;20045;-67
2021/06/25 11:13:21;;;;;;;1.85;1.38;;;;;;;;;;5049126;28;20497;-67
2021/06/25 11:15:50;;;;;;;1.17;1.05;;;;;;;;;;5048860;28;20503;-67
2021/06/25 11:18:21;;;;;;;2.88;1.30;;;;;;;;;;5050027;28;20036;-67
2021/06/25 11:20:51;;;;;;;1.60;1.20;;;;;;;;;;5043646;28;20083;-67
2021/06/25 11:23:22;;;;;;;3.33;1.35;;;;;;;;;;5048536;28;20102;-66
2021/06/25 11:25:53;;;;;;;2.83;1.30;;;;;;;;;;5046523;28;20041;-67
2021/06/25 11:28:26;;;;;;;2.03;1.00;;;;;;;;;;5046446;28;20076;-68
2021/06/25 11:31:00;;;;;;;1.53;1.20;;;;;;;;;;5047186;28;20052;-68
2021/06/25 11:33:31;;;;;;;1.58;1.35;;;;;;;;;;5048051;28;20480;-66
2021/06/25 11:36:21;;;;;;;2.55;0.98;;;;;;;;;;5048518;28;20060;-66
2021/06/25 11:39:00;;;;;;;1.10;0.90;;;;;;;;;;5043479;28;20202;-65
2021/06/25 11:41:30;;;;;;;1.02;0.90;;;;;;;;;;5052480;28;20052;-66
2021/06/25 11:44:07;;;;;;;1.10;1.00;;;;;;;;;;5044811;28;20056;-65
2021/06/25 11:46:35;;;;;;;1.10;1.00;;;;;;;;;;5050315;28;20041;-66
2021/06/25 11:49:05;;;;;;;0.82;0.82;;;;;;;;;;5045007;28;20059;-66
2021/06/25 11:51:35;;;;;;;2.65;1.10;;;;;;;;;;5040740;28;20863;-66
2021/06/25 11:54:04;;;;;;;0.98;0.88;;;;;;;;;;5033414;28;20045;-66
2021/06/25 11:56:33;;;;;;;1.20;1.00;;;;;;;;;;5040776;28;20053;-66
2021/06/25 11:59:03;;;;;;;1.65;1.00;;;;;;;;;;5045103;28;20689;-66
2021/06/25 12:01:32;;;;;;;2.17;1.00;;;;;;;;;;5045361;28;20067;-66
2021/06/25 12:04:06;;;;;;;2.63;1.20;;;;;;;;;;5043758;28;22005;-66
2021/06/25 12:06:35;;;;;;;1.27;1.08;;;;;;;;;;5042984;28;20053;-66
2021/06/25 12:09:06;;;;;;;1.40;0.88;;;;;;;;;;5044787;28;20048;-66
2021/06/25 12:11:37;;;;;;;0.95;0.90;;;;;;;;;;5045355;28;20048;-66
2021/06/25 12:14:07;;;;;;;1.15;1.05;;;;;;;;;;5043411;28;20049;-66
2021/06/25 12:16:39;;;;;;;2.35;1.00;;;;;;;;;;5043172;28;20055;-66
2021/06/25 12:19:11;;;;;;;1.13;0.70;;;;;;;;;;5043655;28;20122;-67
2021/06/25 12:21:39;;;;;;;0.70;0.60;;;;;;;;;;5044961;28;20045;-66
2021/06/25 12:24:08;;;;;;;2.78;0.82;;;;;;;;;;5030852;28;20118;-67
2021/06/25 12:26:36;;;;;;;1.15;0.98;;;;;;;;;;5044568;28;20048;-66
2021/06/25 12:29:05;;;;;;;0.70;0.70;;;;;;;;;;5044713;28;20076;-66
2021/06/25 12:31:35;;;;;;;2.25;1.00;;;;;;;;;;5044515;28;20064;-65
2021/06/25 12:34:07;;;;;;;0.77;0.65;;;;;;;;;;5043912;28;20055;-66
2021/06/25 12:36:38;;;;;;;0.90;0.73;;;;;;;;;;5041940;28;20504;-66
2021/06/25 12:39:17;;;;;;;0.53;0.53;;;;;;;;;;3885228;28;10020724;-66
2021/06/25 12:41:46;;;;;;;1.83;0.70;;;;;;;;;;2082614;28;10002473;-66
2021/06/25 12:44:15;;;;;;;1.42;0.75;;;;;;;;;;5044089;28;20055;-66
2021/06/25 12:46:43;;;;;;;2.03;0.95;;;;;;;;;;5045024;28;20045;-66
2021/06/25 12:49:12;;;;;;;2.00;1.10;;;;;;;;;;5043722;28;20535;-66
2021/06/25 12:51:42;;;;;;;3.25;1.10;;;;;;;;;;5044843;28;20057;-66
2021/06/25 12:54:11;;;;;;;2.80;1.13;;;;;;;;;;5046277;28;20424;-65
2021/06/25 12:56:40;;;;;;;0.82;0.82;;;;;;;;;;5045390;28;20316;-66
2021/06/25 12:59:11;;;;;;;4.70;1.23;;;;;;;;;;5046533;28;20048;-66
2021/06/25 13:01:40;;;;;;;2.72;0.77;;;;;;;;;;5045919;28;20578;-65
2021/06/25 13:04:19;;;;;;;2.15;0.60;;;;;;;;;;5044654;28;20385;-65
2021/06/25 13:06:51;;;;;;;1.33;0.60;;;;;;;;;;5047480;28;20047;-65
2021/06/25 13:09:21;;;;;;;2.58;0.93;;;;;;;;;;5047172;28;20136;-66
2021/06/25 13:11:50;;;;;;;0.63;0.52;;;;;;;;;;5047394;28;20393;-66
2021/06/25 13:14:31;;;;;;;4.30;0.77;;;;;;;;;;5054146;28;20097;-66
2021/06/25 13:17:00;;;;;;;2.00;0.80;;;;;;;;;;5035822;28;20058;-66
2021/06/25 13:19:32;;;;;;;4.38;0.80;;;;;;;;;;5046948;28;20480;-66
2021/06/25 13:22:07;;;;;;;1.25;0.80;;;;;;;;;;5046483;28;20057;-66
2021/06/25 13:24:43;;;;;;;3.22;1.00;;;;;;;;;;5046575;28;20053;-66
2021/06/25 13:27:13;;;;;;;2.63;1.02;;;;;;;;;;5044870;28;20098;-65
2021/06/25 13:29:46;;;;;;;1.20;0.80;;;;;;;;;;5046654;28;20076;-66
2021/06/25 13:32:15;;;;;;;0.70;0.70;;;;;;;;;;5045483;28;20045;-66
2021/06/25 13:34:57;;;;;;;1.08;0.90;;;;;;;;;;5047211;28;20141;-66
2021/06/25 13:37:46;;;;;;;3.88;0.80;;;;;;;;;;5046067;28;20362;-66
2021/06/25 13:40:16;;;;;;;1.98;0.77;;;;;;;;;;5046584;28;20092;-66
2021/06/25 13:42:45;;;;;;;2.17;0.68;;;;;;;;;;5047020;28;20514;-66
2021/06/25 13:45:24;;;;;;;1.05;0.70;;;;;;;;;;5047313;28;20041;-67
2021/06/25 13:47:56;;;;;;;0.88;0.43;;;;;;;;;;5044340;28;20160;-66
2021/06/25 13:50:25;;;;;;;0.70;0.43;;;;;;;;;;5047095;28;20499;-67
2021/06/25 13:52:57;;;;;;;0.55;0.40;;;;;;;;;;5047857;28;20040;-67
2021/06/25 13:55:26;;;;;;;6.13;0.50;;;;;;;;;;5047422;28;20048;-67
2021/06/25 13:57:59;;;;;;;0.50;0.50;;;;;;;;;;5049228;28;20049;-67
2021/06/25 14:00:45;;;;;;;1.10;0.60;;;;;;;;;;5050284;28;20123;-67
2021/06/25 14:03:20;;;;;;;1.17;0.70;;;;;;;;;;5050547;28;20060;-67
2021/06/25 14:05:56;;;;;;;0.95;0.60;;;;;;;;;;5050314;28;20053;-65
2021/06/25 14:08:37;;;;;;;1.23;0.80;;;;;;;;;;5056168;28;20338;-65
2021/06/25 14:11:11;;;;;;;3.45;0.90;;;;;;;;;;5050542;28;20052;-65
2021/06/25 14:13:42;;;;;;;1.67;0.80;;;;;;;;;;5051131;28;20087;-66
2021/06/25 14:16:14;;;;;;;2.08;0.90;;;;;;;;;;5050224;28;20055;-66
2021/06/25 14:18:42;;;;;;;1.33;0.90;;;;;;;;;;5051355;28;20468;-66
2021/06/25 14:21:11;;;;;;;1.13;0.90;;;;;;;;;;5052222;28;20080;-65
2021/06/25 14:23:43;;;;;;;0.98;0.88;;;;;;;;;;5052985;28;20084;-65
2021/06/25 14:26:12;;;;;;;1.27;0.90;;;;;;;;;;5051678;28;20144;-66
2021/06/25 14:28:41;;;;;;;2.47;0.85;;;;;;;;;;5050709;28;20412;-66
2021/06/25 14:31:09;;;;;;;1.58;0.90;;;;;;;;;;5051789;28;20102;-66
2021/06/25 14:33:38;;;;;;;2.25;0.90;;;;;;;;;;5050984;28;20041;-66
2021/06/25 14:36:07;;;;;;;0.98;0.75;;;;;;;;;;5051851;28;20045;-66
2021/06/25 14:38:36;;;;;;;2.00;0.90;;;;;;;;;;5050394;28;20049;-66
2021/06/25 14:41:06;;;;;;;0.75;0.70;;;;;;;;;;5052025;28;20413;-66
2021/06/25 14:43:34;;;;;;;2.33;0.68;;;;;;;;;;5051374;28;20131;-66
2021/06/25 14:46:03;;;;;;;0.70;0.70;;;;;;;;;;5050142;28;20099;-66
2021/06/25 14:48:31;;;;;;;3.35;1.13;;;;;;;;;;5049146;28;20136;-66
2021/06/25 14:51:00;;;;;;;1.90;1.20;;;;;;;;;;5052629;28;20060;-66
2021/06/25 14:53:29;;;;;;;0.88;0.70;;;;;;;;;;5049097;28;20396;-67
2021/06/25 14:55:58;;;;;;;2.40;0.60;;;;;;;;;;5049286;28;20049;-67
2021/06/25 14:58:28;;;;;;;0.80;0.50;;;;;;;;;;5051798;28;20108;-67
2021/06/25 15:00:57;;;;;;;1.23;0.60;;;;;;;;;;5051247;28;20141;-67
2021/06/25 15:03:25;;;;;;;0.77;0.63;;;;;;;;;;5050778;28;20049;-66
2021/06/25 15:05:53;;;;;;;1.63;0.60;;;;;;;;;;5050806;28;20090;-66
2021/06/25 15:08:22;;;;;;;1.25;0.50;;;;;;;;;;5048781;28;20053;-66
2021/06/25 15:10:51;;;;;;;1.77;0.65;;;;;;;;;;5050900;28;20045;-66